sensor_id;sensor_type;location;lat;lon;timestamp;pressure;altitude;pressure_sealevel;temperature;humidity
43125;BME280;49182;50.788;7.318;2023-05-19T00:00:36;101740.28;;;6.92;82.41
43125;BME280;49182;50.788;7.318;2023-05-19T00:03:03;101695.63;;;6.61;82.98
43125;BME280;49182;50.788;7.318;2023-05-19T00:05:30;101744.88;;;6.88;83.20
43125;BME280;49182;50.788;7.318;2023-05-19T00:07:58;101743.25;;;6.86;83.32
43125;BME280;49182;50.788;7.318;2023-05-19T00:10:25;101733.78;;;6.83;83.71
43125;BME280;49182;50.788;7.318;2023-05-19T00:12:54;101736.56;;;6.80;83.67
43125;BME280;49182;50.788;7.318;2023-05-19T00:15:21;101706.91;;;6.63;83.85
43125;BME280;49182;50.788;7.318;2023-05-19T00:17:48;101725.53;;;6.74;83.27
43125;BME280;49182;50.788;7.318;2023-05-19T00:20:15;101731.88;;;6.70;83.16
43125;BME280;49182;50.788;7.318;2023-05-19T00:22:41;101735.63;;;6.66;83.06
43125;BME280;49182;50.788;7.318;2023-05-19T00:25:08;101729.66;;;6.62;82.82
43125;BME280;49182;50.788;7.318;2023-05-19T00:27:35;101730.75;;;6.58;83.67
43125;BME280;49182;50.788;7.318;2023-05-19T00:30:04;101716.28;;;6.51;83.69
43125;BME280;49182;50.788;7.318;2023-05-19T00:32:31;101694.81;;;6.27;84.29
43125;BME280;49182;50.788;7.318;2023-05-19T00:34:58;101724.53;;;6.43;83.49
43125;BME280;49182;50.788;7.318;2023-05-19T00:37:25;101687.50;;;6.17;83.29
43125;BME280;49182;50.788;7.318;2023-05-19T00:39:51;101724.94;;;6.36;83.65
43125;BME280;49182;50.788;7.318;2023-05-19T00:42:18;101709.22;;;6.19;84.10
43125;BME280;49182;50.788;7.318;2023-05-19T00:44:46;101722.03;;;6.25;84.07
43125;BME280;49182;50.788;7.318;2023-05-19T00:47:14;101728.38;;;6.21;84.21
43125;BME280;49182;50.788;7.318;2023-05-19T00:49:40;101722.44;;;6.17;84.16
43125;BME280;49182;50.788;7.318;2023-05-19T00:52:07;101715.72;;;6.12;83.44
43125;BME280;49182;50.788;7.318;2023-05-19T00:54:34;101719.50;;;6.06;83.62
43125;BME280;49182;50.788;7.318;2023-05-19T00:57:01;101730.22;;;6.01;83.32
43125;BME280;49182;50.788;7.318;2023-05-19T00:59:28;101723.59;;;5.94;83.38
43125;BME280;49182;50.788;7.318;2023-05-19T01:01:55;101729.75;;;5.93;83.80
43125;BME280;49182;50.788;7.318;2023-05-19T01:04:24;101722.34;;;5.84;84.42
43125;BME280;49182;50.788;7.318;2023-05-19T01:06:51;101732.03;;;5.82;83.66
43125;BME280;49182;50.788;7.318;2023-05-19T01:09:18;101686.72;;;5.46;83.70
43125;BME280;49182;50.788;7.318;2023-05-19T01:11:45;101738.66;;;5.72;83.64
43125;BME280;49182;50.788;7.318;2023-05-19T01:14:11;101736.97;;;5.71;85.37
43125;BME280;49182;50.788;7.318;2023-05-19T01:16:41;101734.41;;;5.69;85.91
43125;BME280;49182;50.788;7.318;2023-05-19T01:19:13;101732.09;;;5.63;85.20
43125;BME280;49182;50.788;7.318;2023-05-19T01:22:21;101722.00;;;5.56;85.80
43125;BME280;49182;50.788;7.318;2023-05-19T01:25:11;101713.06;;;5.43;85.34
43125;BME280;49182;50.788;7.318;2023-05-19T01:28:06;101725.13;;;5.45;84.93
43125;BME280;49182;50.788;7.318;2023-05-19T01:30:40;101695.69;;;5.23;85.29
43125;BME280;49182;50.788;7.318;2023-05-19T01:33:10;101720.19;;;5.39;86.21
43125;BME280;49182;50.788;7.318;2023-05-19T01:35:38;101722.88;;;5.38;86.58
43125;BME280;49182;50.788;7.318;2023-05-19T01:38:07;101727.28;;;5.37;86.20
43125;BME280;49182;50.788;7.318;2023-05-19T01:40:35;101687.41;;;5.13;86.58
43125;BME280;49182;50.788;7.318;2023-05-19T01:43:03;101716.41;;;5.27;85.71
43125;BME280;49182;50.788;7.318;2023-05-19T01:45:32;101716.41;;;5.27;86.05
43125;BME280;49182;50.788;7.318;2023-05-19T01:48:02;101720.09;;;5.23;86.29
43125;BME280;49182;50.788;7.318;2023-05-19T01:50:30;101716.75;;;5.20;86.66
43125;BME280;49182;50.788;7.318;2023-05-19T01:52:58;101716.00;;;5.18;86.96
43125;BME280;49182;50.788;7.318;2023-05-19T01:55:26;101721.44;;;5.13;86.72
43125;BME280;49182;50.788;7.318;2023-05-19T01:58:00;101712.66;;;5.14;87.16
43125;BME280;49182;50.788;7.318;2023-05-19T02:00:38;101710.22;;;5.11;86.87
43125;BME280;49182;50.788;7.318;2023-05-19T02:03:16;101691.28;;;4.87;86.98
43125;BME280;49182;50.788;7.318;2023-05-19T02:05:52;101714.25;;;5.00;87.26
43125;BME280;49182;50.788;7.318;2023-05-19T02:08:26;101722.22;;;4.97;87.44
43125;BME280;49182;50.788;7.318;2023-05-19T02:10:59;101728.44;;;4.94;87.87
43125;BME280;49182;50.788;7.318;2023-05-19T02:13:30;101685.19;;;4.68;87.25
43125;BME280;49182;50.788;7.318;2023-05-19T02:16:03;101723.09;;;4.97;88.65
43125;BME280;49182;50.788;7.318;2023-05-19T02:18:32;101732.41;;;5.03;90.60
43125;BME280;49182;50.788;7.318;2023-05-19T02:20:59;101725.00;;;4.94;90.36
43125;BME280;49182;50.788;7.318;2023-05-19T02:23:26;101731.34;;;4.88;90.03
43125;BME280;49182;50.788;7.318;2023-05-19T02:25:52;101738.44;;;4.86;90.47
43125;BME280;49182;50.788;7.318;2023-05-19T02:28:19;101729.88;;;4.82;90.43
43125;BME280;49182;50.788;7.318;2023-05-19T02:30:45;101728.03;;;4.84;91.04
43125;BME280;49182;50.788;7.318;2023-05-19T02:33:12;101720.53;;;4.77;90.87
43125;BME280;49182;50.788;7.318;2023-05-19T02:35:42;101728.25;;;4.80;90.96
43125;BME280;49182;50.788;7.318;2023-05-19T02:38:09;101728.44;;;4.75;90.53
43125;BME280;49182;50.788;7.318;2023-05-19T02:40:36;101732.97;;;4.72;90.18
43125;BME280;49182;50.788;7.318;2023-05-19T02:43:02;101731.44;;;4.68;89.84
43125;BME280;49182;50.788;7.318;2023-05-19T02:45:29;101713.56;;;4.57;89.92
43125;BME280;49182;50.788;7.318;2023-05-19T02:47:56;101721.38;;;4.59;89.74
43125;BME280;49182;50.788;7.318;2023-05-19T02:50:24;101719.59;;;4.59;89.68
43125;BME280;49182;50.788;7.318;2023-05-19T02:52:52;101724.13;;;4.56;90.01
43125;BME280;49182;50.788;7.318;2023-05-19T02:55:19;101694.88;;;4.27;89.63
43125;BME280;49182;50.788;7.318;2023-05-19T02:57:45;101725.44;;;4.45;89.85
43125;BME280;49182;50.788;7.318;2023-05-19T03:00:13;101722.06;;;4.43;89.97
43125;BME280;49182;50.788;7.318;2023-05-19T03:02:40;101726.44;;;4.43;90.62
43125;BME280;49182;50.788;7.318;2023-05-19T03:05:07;101696.91;;;4.21;90.50
43125;BME280;49182;50.788;7.318;2023-05-19T03:07:34;101729.50;;;4.32;90.52
43125;BME280;49182;50.788;7.318;2023-05-19T03:10:03;101721.94;;;4.26;90.56
43125;BME280;49182;50.788;7.318;2023-05-19T03:12:30;101728.22;;;4.22;90.40
43125;BME280;49182;50.788;7.318;2023-05-19T03:14:56;101704.25;;;4.13;90.53
43125;BME280;49182;50.788;7.318;2023-05-19T03:17:23;101709.59;;;4.10;90.73
43125;BME280;49182;50.788;7.318;2023-05-19T03:19:50;101715.56;;;4.13;90.58
43125;BME280;49182;50.788;7.318;2023-05-19T03:22:17;101714.19;;;4.04;90.62
43125;BME280;49182;50.788;7.318;2023-05-19T03:24:43;101708.97;;;4.04;90.58
43125;BME280;49182;50.788;7.318;2023-05-19T03:27:12;101679.50;;;3.81;90.36
43125;BME280;49182;50.788;7.318;2023-05-19T03:29:38;101704.84;;;3.99;90.63
43125;BME280;49182;50.788;7.318;2023-05-19T03:32:05;101708.56;;;3.93;90.68
43125;BME280;49182;50.788;7.318;2023-05-19T03:34:32;101704.38;;;3.89;90.39
43125;BME280;49182;50.788;7.318;2023-05-19T03:36:59;101708.78;;;3.89;90.20
43125;BME280;49182;50.788;7.318;2023-05-19T03:39:26;101711.63;;;3.83;90.51
43125;BME280;49182;50.788;7.318;2023-05-19T03:41:53;101656.75;;;3.42;90.86
43125;BME280;49182;50.788;7.318;2023-05-19T03:44:21;101723.13;;;3.79;90.90
43125;BME280;49182;50.788;7.318;2023-05-19T03:46:47;101720.50;;;3.79;91.31
43125;BME280;49182;50.788;7.318;2023-05-19T03:49:17;101721.41;;;3.78;92.08
43125;BME280;49182;50.788;7.318;2023-05-19T03:51:56;101731.16;;;3.74;91.97
43125;BME280;49182;50.788;7.318;2023-05-19T03:54:30;101728.47;;;3.76;91.52
43125;BME280;49182;50.788;7.318;2023-05-19T03:56:57;101676.59;;;3.46;91.68
43125;BME280;49182;50.788;7.318;2023-05-19T03:59:25;101730.88;;;3.80;91.59
43125;BME280;49182;50.788;7.318;2023-05-19T04:01:52;101728.34;;;3.79;91.86
43125;BME280;49182;50.788;7.318;2023-05-19T04:04:18;101723.16;;;3.77;91.51
43125;BME280;49182;50.788;7.318;2023-05-19T04:06:45;101722.31;;;3.77;90.99
43125;BME280;49182;50.788;7.318;2023-05-19T04:09:14;101728.38;;;3.77;91.13
43125;BME280;49182;50.788;7.318;2023-05-19T04:11:41;101718.16;;;3.73;91.29
43125;BME280;49182;50.788;7.318;2023-05-19T04:14:08;101731.16;;;3.74;91.16
43125;BME280;49182;50.788;7.318;2023-05-19T04:16:36;101735.31;;;3.78;91.22
43125;BME280;49182;50.788;7.318;2023-05-19T04:19:03;101710.31;;;3.73;91.33
43125;BME280;49182;50.788;7.318;2023-05-19T04:21:30;101731.16;;;4.15;90.94
43125;BME280;49182;50.788;7.318;2023-05-19T04:23:57;101728.91;;;4.46;90.77
43125;BME280;49182;50.788;7.318;2023-05-19T04:26:24;101727.47;;;4.78;89.97
43125;BME280;49182;50.788;7.318;2023-05-19T04:28:51;101717.34;;;5.08;89.05
43125;BME280;49182;50.788;7.318;2023-05-19T04:31:18;101722.03;;;5.37;88.24
43125;BME280;49182;50.788;7.318;2023-05-19T04:33:46;101721.47;;;5.66;87.21
43125;BME280;49182;50.788;7.318;2023-05-19T04:36:13;101715.91;;;5.91;85.74
43125;BME280;49182;50.788;7.318;2023-05-19T04:38:42;101713.56;;;6.20;84.94
43125;BME280;49182;50.788;7.318;2023-05-19T04:41:10;101684.13;;;6.30;83.90
43125;BME280;49182;50.788;7.318;2023-05-19T04:43:38;101718.84;;;6.68;83.26
43125;BME280;49182;50.788;7.318;2023-05-19T04:46:05;101717.59;;;6.75;81.84
43125;BME280;49182;50.788;7.318;2023-05-19T04:48:32;101716.66;;;6.76;81.96
43125;BME280;49182;50.788;7.318;2023-05-19T04:51:00;101720.22;;;6.75;81.49
43125;BME280;49182;50.788;7.318;2023-05-19T04:53:27;101726.38;;;6.74;81.23
43125;BME280;49182;50.788;7.318;2023-05-19T04:55:54;101698.69;;;6.53;80.67
43125;BME280;49182;50.788;7.318;2023-05-19T04:58:21;101725.13;;;6.66;80.86
43125;BME280;49182;50.788;7.318;2023-05-19T05:00:48;101721.88;;;6.61;81.55
43125;BME280;49182;50.788;7.318;2023-05-19T05:03:15;101727.03;;;6.62;81.98
43125;BME280;49182;50.788;7.318;2023-05-19T05:05:42;101723.56;;;6.62;81.05
43125;BME280;49182;50.788;7.318;2023-05-19T05:08:10;101729.59;;;6.64;82.94
43125;BME280;49182;50.788;7.318;2023-05-19T05:10:41;101724.25;;;6.65;82.86
43125;BME280;49182;50.788;7.318;2023-05-19T05:13:08;101721.47;;;6.68;82.72
43125;BME280;49182;50.788;7.318;2023-05-19T05:15:37;101724.88;;;6.70;82.29
43125;BME280;49182;50.788;7.318;2023-05-19T05:18:06;101724.69;;;6.73;83.21
43125;BME280;49182;50.788;7.318;2023-05-19T05:20:34;101724.59;;;6.75;82.83
43125;BME280;49182;50.788;7.318;2023-05-19T05:23:01;101672.78;;;6.47;83.27
43125;BME280;49182;50.788;7.318;2023-05-19T05:25:32;101727.59;;;6.84;83.09
43125;BME280;49182;50.788;7.318;2023-05-19T05:27:59;101728.19;;;6.89;83.45
43125;BME280;49182;50.788;7.318;2023-05-19T05:30:26;101729.78;;;6.92;83.75
43125;BME280;49182;50.788;7.318;2023-05-19T05:32:53;101721.69;;;6.97;83.76
43125;BME280;49182;50.788;7.318;2023-05-19T05:35:29;101723.00;;;7.04;84.22
43125;BME280;49182;50.788;7.318;2023-05-19T05:37:56;101725.22;;;7.11;83.40
43125;BME280;49182;50.788;7.318;2023-05-19T05:40:23;101722.38;;;7.16;83.77
43125;BME280;49182;50.788;7.318;2023-05-19T05:42:52;101723.81;;;7.21;84.46
43125;BME280;49182;50.788;7.318;2023-05-19T05:45:20;101724.13;;;7.31;84.49
43125;BME280;49182;50.788;7.318;2023-05-19T05:47:51;101717.31;;;7.43;84.37
43125;BME280;49182;50.788;7.318;2023-05-19T05:50:19;101725.56;;;7.52;83.83
43125;BME280;49182;50.788;7.318;2023-05-19T05:52:46;101666.06;;;7.36;84.25
43125;BME280;49182;50.788;7.318;2023-05-19T05:55:16;101710.09;;;7.62;84.07
43125;BME280;49182;50.788;7.318;2023-05-19T05:57:43;101710.38;;;7.71;83.90
43125;BME280;49182;50.788;7.318;2023-05-19T06:00:12;101700.38;;;7.78;84.71
43125;BME280;49182;50.788;7.318;2023-05-19T06:02:41;101701.81;;;7.84;84.88
43125;BME280;49182;50.788;7.318;2023-05-19T06:05:08;101690.56;;;7.96;82.90
43125;BME280;49182;50.788;7.318;2023-05-19T06:07:35;101704.84;;;8.06;82.80
43125;BME280;49182;50.788;7.318;2023-05-19T06:10:03;101707.13;;;8.12;82.33
43125;BME280;49182;50.788;7.318;2023-05-19T06:12:30;101704.78;;;8.22;82.33
43125;BME280;49182;50.788;7.318;2023-05-19T06:14:57;101704.25;;;8.31;82.80
43125;BME280;49182;50.788;7.318;2023-05-19T06:17:40;101706.06;;;8.44;82.73
43125;BME280;49182;50.788;7.318;2023-05-19T06:20:07;101672.88;;;8.42;83.27
43125;BME280;49182;50.788;7.318;2023-05-19T06:22:34;101694.66;;;8.72;81.98
43125;BME280;49182;50.788;7.318;2023-05-19T06:25:03;101698.31;;;8.84;82.14
43125;BME280;49182;50.788;7.318;2023-05-19T06:27:29;101697.34;;;8.99;82.05
43125;BME280;49182;50.788;7.318;2023-05-19T06:30:00;101697.50;;;9.10;80.66
43125;BME280;49182;50.788;7.318;2023-05-19T06:32:30;101659.72;;;8.97;80.66
43125;BME280;49182;50.788;7.318;2023-05-19T06:35:00;101695.16;;;9.32;79.94
43125;BME280;49182;50.788;7.318;2023-05-19T06:37:27;101693.56;;;9.44;79.84
43125;BME280;49182;50.788;7.318;2023-05-19T06:39:54;101694.41;;;9.57;78.99
43125;BME280;49182;50.788;7.318;2023-05-19T06:42:21;101691.94;;;9.68;78.14
43125;BME280;49182;50.788;7.318;2023-05-19T06:44:55;101679.59;;;9.82;77.31
43125;BME280;49182;50.788;7.318;2023-05-19T06:47:22;101644.47;;;9.68;76.39
43125;BME280;49182;50.788;7.318;2023-05-19T06:49:50;101692.72;;;10.08;76.54
43125;BME280;49182;50.788;7.318;2023-05-19T06:52:18;101688.22;;;10.23;76.21
43125;BME280;49182;50.788;7.318;2023-05-19T06:54:45;101692.56;;;10.37;74.26
43125;BME280;49182;50.788;7.318;2023-05-19T06:57:12;101687.38;;;10.48;73.74
43125;BME280;49182;50.788;7.318;2023-05-19T06:59:38;101688.31;;;10.60;73.79
43125;BME280;49182;50.788;7.318;2023-05-19T07:02:06;101672.72;;;10.68;74.11
43125;BME280;49182;50.788;7.318;2023-05-19T07:04:33;101688.88;;;10.88;74.53
43125;BME280;49182;50.788;7.318;2023-05-19T07:07:00;101678.16;;;11.03;74.10
43125;BME280;49182;50.788;7.318;2023-05-19T07:09:29;101687.00;;;11.14;72.69
43125;BME280;49182;50.788;7.318;2023-05-19T07:11:55;101660.31;;;11.17;72.33
43125;BME280;49182;50.788;7.318;2023-05-19T07:14:22;101685.09;;;11.40;71.86
43125;BME280;49182;50.788;7.318;2023-05-19T07:16:49;101678.03;;;11.52;72.47
43125;BME280;49182;50.788;7.318;2023-05-19T07:19:16;101668.00;;;11.68;71.75
43125;BME280;49182;50.788;7.318;2023-05-19T07:21:43;101666.88;;;11.83;71.26
43125;BME280;49182;50.788;7.318;2023-05-19T07:24:10;101668.13;;;12.01;71.40
43125;BME280;49182;50.788;7.318;2023-05-19T07:26:38;101663.78;;;12.11;69.26
43125;BME280;49182;50.788;7.318;2023-05-19T07:29:05;101663.94;;;12.21;67.01
43125;BME280;49182;50.788;7.318;2023-05-19T07:31:32;101656.47;;;12.37;67.70
43125;BME280;49182;50.788;7.318;2023-05-19T07:33:59;101661.53;;;12.51;67.37
43125;BME280;49182;50.788;7.318;2023-05-19T07:36:26;101658.63;;;12.66;67.28
43125;BME280;49182;50.788;7.318;2023-05-19T07:38:52;101660.63;;;12.84;66.35
43125;BME280;49182;50.788;7.318;2023-05-19T07:41:19;101654.00;;;13.01;63.41
43125;BME280;49182;50.788;7.318;2023-05-19T07:43:47;101648.19;;;13.18;61.74
43125;BME280;49182;50.788;7.318;2023-05-19T07:46:13;101647.53;;;13.37;61.13
43125;BME280;49182;50.788;7.318;2023-05-19T07:48:40;101651.94;;;13.48;60.46
43125;BME280;49182;50.788;7.318;2023-05-19T07:51:07;101638.59;;;13.59;59.83
43125;BME280;49182;50.788;7.318;2023-05-19T07:53:34;101646.00;;;13.76;59.21
43125;BME280;49182;50.788;7.318;2023-05-19T07:56:00;101644.44;;;13.94;59.18
43125;BME280;49182;50.788;7.318;2023-05-19T07:58:27;101631.84;;;14.17;56.89
43125;BME280;49182;50.788;7.318;2023-05-19T08:00:57;101638.88;;;14.28;57.69
43125;BME280;49182;50.788;7.318;2023-05-19T08:03:24;101633.50;;;14.39;56.45
43125;BME280;49182;50.788;7.318;2023-05-19T08:05:50;101634.69;;;14.55;56.12
43125;BME280;49182;50.788;7.318;2023-05-19T08:08:17;101635.44;;;14.77;54.85
43125;BME280;49182;50.788;7.318;2023-05-19T08:10:44;101632.53;;;14.89;54.51
43125;BME280;49182;50.788;7.318;2023-05-19T08:13:11;101624.28;;;14.92;54.89
43125;BME280;49182;50.788;7.318;2023-05-19T08:15:38;101630.19;;;15.15;53.11
43125;BME280;49182;50.788;7.318;2023-05-19T08:18:06;101631.72;;;15.27;51.07
43125;BME280;49182;50.788;7.318;2023-05-19T08:20:33;101620.53;;;15.33;50.38
43125;BME280;49182;50.788;7.318;2023-05-19T08:23:00;101626.84;;;15.42;50.86
43125;BME280;49182;50.788;7.318;2023-05-19T08:25:26;101618.31;;;15.58;51.38
43125;BME280;49182;50.788;7.318;2023-05-19T08:27:53;101625.88;;;15.72;49.45
43125;BME280;49182;50.788;7.318;2023-05-19T08:30:19;101618.41;;;15.75;49.10
43125;BME280;49182;50.788;7.318;2023-05-19T08:32:46;101611.22;;;15.95;49.75
43125;BME280;49182;50.788;7.318;2023-05-19T08:35:14;101610.31;;;16.14;47.50
43125;BME280;49182;50.788;7.318;2023-05-19T08:37:41;101615.47;;;16.25;47.92
43125;BME280;49182;50.788;7.318;2023-05-19T08:40:11;101591.47;;;16.25;47.93
43125;BME280;49182;50.788;7.318;2023-05-19T08:42:41;101595.34;;;16.40;46.71
43125;BME280;49182;50.788;7.318;2023-05-19T08:45:08;101594.75;;;16.46;48.59
43125;BME280;49182;50.788;7.318;2023-05-19T08:47:35;101594.41;;;16.59;47.10
43125;BME280;49182;50.788;7.318;2023-05-19T08:50:04;101589.13;;;16.77;46.60
43125;BME280;49182;50.788;7.318;2023-05-19T08:52:40;101594.94;;;16.90;46.48
43125;BME280;49182;50.788;7.318;2023-05-19T08:55:12;101588.03;;;16.97;45.89
43125;BME280;49182;50.788;7.318;2023-05-19T08:57:40;101577.72;;;17.02;46.28
43125;BME280;49182;50.788;7.318;2023-05-19T09:00:09;101581.13;;;17.12;46.63
43125;BME280;49182;50.788;7.318;2023-05-19T09:02:37;101541.88;;;17.05;46.07
43125;BME280;49182;50.788;7.318;2023-05-19T09:05:21;101583.00;;;17.55;45.57
43125;BME280;49182;50.788;7.318;2023-05-19T09:07:49;101568.34;;;17.77;43.88
43125;BME280;49182;50.788;7.318;2023-05-19T09:10:16;101564.91;;;17.93;44.08
43125;BME280;49182;50.788;7.318;2023-05-19T09:12:44;101567.84;;;18.07;43.34
43125;BME280;49182;50.788;7.318;2023-05-19T09:15:12;101561.91;;;18.30;43.23
43125;BME280;49182;50.788;7.318;2023-05-19T09:17:39;101558.94;;;18.33;42.19
43125;BME280;49182;50.788;7.318;2023-05-19T09:20:06;101551.09;;;18.47;40.43
43125;BME280;49182;50.788;7.318;2023-05-19T09:22:33;101551.69;;;18.67;41.31
43125;BME280;49182;50.788;7.318;2023-05-19T09:25:01;101560.75;;;18.90;40.64
43125;BME280;49182;50.788;7.318;2023-05-19T09:27:30;101551.59;;;19.09;39.90
43125;BME280;49182;50.788;7.318;2023-05-19T09:30:06;101555.44;;;19.23;39.49
43125;BME280;49182;50.788;7.318;2023-05-19T09:32:33;101540.06;;;19.25;39.52
43125;BME280;49182;50.788;7.318;2023-05-19T09:35:01;101546.41;;;19.48;38.32
43125;BME280;49182;50.788;7.318;2023-05-19T09:37:28;101546.25;;;19.50;39.79
43125;BME280;49182;50.788;7.318;2023-05-19T09:39:56;101544.03;;;19.69;37.98
43125;BME280;49182;50.788;7.318;2023-05-19T09:42:24;101538.97;;;19.83;38.53
43125;BME280;49182;50.788;7.318;2023-05-19T09:44:58;101530.91;;;19.91;35.33
43125;BME280;49182;50.788;7.318;2023-05-19T09:47:24;101546.84;;;19.76;36.27
43125;BME280;49182;50.788;7.318;2023-05-19T09:49:52;101548.38;;;19.70;36.06
43125;BME280;49182;50.788;7.318;2023-05-19T09:52:19;101545.06;;;19.68;38.26
43125;BME280;49182;50.788;7.318;2023-05-19T09:54:47;101519.91;;;19.69;40.17
43125;BME280;49182;50.788;7.318;2023-05-19T09:57:14;101533.91;;;19.88;38.82
43125;BME280;49182;50.788;7.318;2023-05-19T09:59:42;101533.34;;;20.08;38.00
43125;BME280;49182;50.788;7.318;2023-05-19T10:02:14;101535.19;;;20.16;38.10
43125;BME280;49182;50.788;7.318;2023-05-19T10:04:42;101535.88;;;20.10;35.51
43125;BME280;49182;50.788;7.318;2023-05-19T10:07:11;101535.09;;;19.93;35.91
43125;BME280;49182;50.788;7.318;2023-05-19T10:09:38;101537.28;;;19.90;36.27
43125;BME280;49182;50.788;7.318;2023-05-19T10:12:07;101540.63;;;19.92;35.77
43125;BME280;49182;50.788;7.318;2023-05-19T10:14:34;101534.28;;;19.85;34.66
43125;BME280;49182;50.788;7.318;2023-05-19T10:17:03;101535.13;;;19.85;35.41
43125;BME280;49182;50.788;7.318;2023-05-19T10:19:30;101528.63;;;19.71;35.38
43125;BME280;49182;50.788;7.318;2023-05-19T10:21:57;101525.47;;;19.60;36.32
43125;BME280;49182;50.788;7.318;2023-05-19T10:24:24;101517.25;;;19.61;36.18
43125;BME280;49182;50.788;7.318;2023-05-19T10:26:55;101505.88;;;19.51;34.61
43125;BME280;49182;50.788;7.318;2023-05-19T10:29:26;101495.81;;;19.61;35.11
43125;BME280;49182;50.788;7.318;2023-05-19T10:31:54;101518.59;;;19.65;34.42
43125;BME280;49182;50.788;7.318;2023-05-19T10:34:35;101517.78;;;19.49;35.25
43125;BME280;49182;50.788;7.318;2023-05-19T10:37:18;101515.25;;;19.39;36.21
43125;BME280;49182;50.788;7.318;2023-05-19T10:39:50;101510.91;;;19.46;37.29
43125;BME280;49182;50.788;7.318;2023-05-19T10:42:24;101512.22;;;19.58;36.96
43125;BME280;49182;50.788;7.318;2023-05-19T10:44:59;101505.72;;;19.61;36.93
43125;BME280;49182;50.788;7.318;2023-05-19T10:47:28;101510.72;;;19.64;36.18
43125;BME280;49182;50.788;7.318;2023-05-19T10:49:59;101510.19;;;19.76;36.50
43125;BME280;49182;50.788;7.318;2023-05-19T10:52:26;101506.31;;;19.87;35.14
43125;BME280;49182;50.788;7.318;2023-05-19T10:54:52;101467.97;;;19.78;36.02
43125;BME280;49182;50.788;7.318;2023-05-19T10:57:24;101497.81;;;20.06;34.79
43125;BME280;49182;50.788;7.318;2023-05-19T10:59:51;101501.19;;;20.08;34.92
43125;BME280;49182;50.788;7.318;2023-05-19T11:02:38;101493.28;;;20.15;35.57
43125;BME280;49182;50.788;7.318;2023-05-19T11:05:10;101464.94;;;20.12;34.13
43125;BME280;49182;50.788;7.318;2023-05-19T11:07:40;101484.34;;;20.23;35.38
43125;BME280;49182;50.788;7.318;2023-05-19T11:10:07;101488.00;;;20.30;34.79
43125;BME280;49182;50.788;7.318;2023-05-19T11:12:44;101481.25;;;20.11;33.58
43125;BME280;49182;50.788;7.318;2023-05-19T11:15:12;101474.16;;;20.18;34.93
43125;BME280;49182;50.788;7.318;2023-05-19T11:17:39;101483.16;;;20.25;35.31
43125;BME280;49182;50.788;7.318;2023-05-19T11:20:18;101471.41;;;20.34;33.91
43125;BME280;49182;50.788;7.318;2023-05-19T11:23:00;101475.25;;;20.32;34.39
43125;BME280;49182;50.788;7.318;2023-05-19T11:25:40;101477.22;;;20.46;35.93
43125;BME280;49182;50.788;7.318;2023-05-19T11:28:07;101484.97;;;20.64;34.11
43125;BME280;49182;50.788;7.318;2023-05-19T11:30:34;101475.84;;;20.73;34.46
43125;BME280;49182;50.788;7.318;2023-05-19T11:33:01;101469.47;;;20.74;32.71
43125;BME280;49182;50.788;7.318;2023-05-19T11:35:30;101471.66;;;20.70;33.77
43125;BME280;49182;50.788;7.318;2023-05-19T11:38:02;101466.88;;;20.80;33.96
43125;BME280;49182;50.788;7.318;2023-05-19T11:40:29;101453.16;;;20.75;32.56
43125;BME280;49182;50.788;7.318;2023-05-19T11:42:56;101461.75;;;20.93;30.93
43125;BME280;49182;50.788;7.318;2023-05-19T11:45:23;101461.00;;;20.85;31.36
43125;BME280;49182;50.788;7.318;2023-05-19T11:47:50;101449.31;;;20.78;31.94
43125;BME280;49182;50.788;7.318;2023-05-19T11:50:29;101456.84;;;20.97;32.14
43125;BME280;49182;50.788;7.318;2023-05-19T11:52:58;101432.31;;;20.85;31.03
43125;BME280;49182;50.788;7.318;2023-05-19T11:55:25;101450.31;;;21.14;32.36
43125;BME280;49182;50.788;7.318;2023-05-19T11:57:56;101445.91;;;21.36;30.39
43125;BME280;49182;50.788;7.318;2023-05-19T12:00:34;101445.84;;;21.44;31.97
43125;BME280;49182;50.788;7.318;2023-05-19T12:03:01;101442.50;;;21.57;30.07
43125;BME280;49182;50.788;7.318;2023-05-19T12:05:29;101424.34;;;21.59;30.10
43125;BME280;49182;50.788;7.318;2023-05-19T12:08:00;101442.59;;;21.78;28.86
43125;BME280;49182;50.788;7.318;2023-05-19T12:10:27;101438.59;;;21.74;28.62
43125;BME280;49182;50.788;7.318;2023-05-19T12:12:54;101434.06;;;21.74;28.85
43125;BME280;49182;50.788;7.318;2023-05-19T12:15:22;101428.00;;;21.87;28.99
43125;BME280;49182;50.788;7.318;2023-05-19T12:17:49;101431.91;;;21.99;28.05
43125;BME280;49182;50.788;7.318;2023-05-19T12:20:16;101423.19;;;21.97;27.76
43125;BME280;49182;50.788;7.318;2023-05-19T12:22:46;101413.75;;;22.01;28.89
43125;BME280;49182;50.788;7.318;2023-05-19T12:25:14;101422.16;;;22.13;28.68
43125;BME280;49182;50.788;7.318;2023-05-19T12:27:42;101424.50;;;22.01;28.36
43125;BME280;49182;50.788;7.318;2023-05-19T12:30:09;101422.06;;;22.06;29.43
43125;BME280;49182;50.788;7.318;2023-05-19T12:32:37;101410.19;;;22.15;29.69
43125;BME280;49182;50.788;7.318;2023-05-19T12:35:05;101414.47;;;22.31;27.66
43125;BME280;49182;50.788;7.318;2023-05-19T12:37:32;101402.09;;;22.37;27.87
43125;BME280;49182;50.788;7.318;2023-05-19T12:40:00;101398.00;;;22.41;29.22
43125;BME280;49182;50.788;7.318;2023-05-19T12:42:28;101404.03;;;22.43;28.16
43125;BME280;49182;50.788;7.318;2023-05-19T12:44:54;101381.66;;;22.42;29.01
43125;BME280;49182;50.788;7.318;2023-05-19T12:47:21;101388.44;;;22.59;30.37
43125;BME280;49182;50.788;7.318;2023-05-19T12:49:54;101393.78;;;22.74;29.47
43125;BME280;49182;50.788;7.318;2023-05-19T12:52:20;101392.22;;;22.86;29.63
43125;BME280;49182;50.788;7.318;2023-05-19T12:54:47;101385.81;;;22.87;25.72
43125;BME280;49182;50.788;7.318;2023-05-19T12:57:16;101399.53;;;22.92;26.28
43125;BME280;49182;50.788;7.318;2023-05-19T12:59:43;101388.50;;;22.87;26.72
43125;BME280;49182;50.788;7.318;2023-05-19T13:02:10;101397.03;;;22.91;26.65